sensor_id;sensor_type;location;lat;lon;timestamp;P1;durP1;ratioP1;P2;durP2;ratioP2
18999;SDS011;9633;50.980;13.850;2023-04-24T00:00:38;8.20;;;7.40;;
18999;SDS011;9633;50.980;13.850;2023-04-24T00:02:12;8.33;;;7.50;;
18999;SDS011;9633;50.980;13.850;2023-04-24T00:03:45;8.60;;;7.10;;
18999;SDS011;9633;50.980;13.850;2023-04-24T00:05:17;7.77;;;6.97;;
18999;SDS011;9633;50.980;13.850;2023-04-24T00:06:51;7.10;;;6.40;;
18999;SDS011;9633;50.980;13.850;2023-04-24T00:08:28;8.33;;;7.53;;
18999;SDS011;9633;50.980;13.850;2023-04-24T00:10:00;9.13;;;7.10;;
18999;SDS011;9633;50.980;13.850;2023-04-24T00:11:35;8.60;;;7.70;;
18999;SDS011;9633;50.980;13.850;2023-04-24T00:13:08;9.60;;;7.67;;
18999;SDS011;9633;50.980;13.850;2023-04-24T00:14:40;8.00;;;7.20;;
18999;SDS011;9633;50.980;13.850;2023-04-24T00:16:13;10.30;;;7.60;;
18999;SDS011;9633;50.980;13.850;2023-04-24T00:17:47;9.33;;;7.07;;
18999;SDS011;9633;50.980;13.850;2023-04-24T00:19:20;8.50;;;7.00;;
18999;SDS011;9633;50.980;13.850;2023-04-24T00:20:53;7.67;;;6.87;;
18999;SDS011;9633;50.980;13.850;2023-04-24T00:22:26;8.80;;;7.03;;
18999;SDS011;9633;50.980;13.850;2023-04-24T00:24:00;9.20;;;7.27;;
18999;SDS011;9633;50.980;13.850;2023-04-24T00:25:33;8.97;;;7.03;;
18999;SDS011;9633;50.980;13.850;2023-04-24T00:27:08;8.50;;;7.23;;
18999;SDS011;9633;50.980;13.850;2023-04-24T00:28:41;8.67;;;6.70;;
18999;SDS011;9633;50.980;13.850;2023-04-24T00:30:14;8.27;;;6.90;;
18999;SDS011;9633;50.980;13.850;2023-04-24T00:31:48;9.00;;;7.17;;
18999;SDS011;9633;50.980;13.850;2023-04-24T00:33:21;7.63;;;6.77;;
18999;SDS011;9633;50.980;13.850;2023-04-24T00:34:54;7.50;;;6.73;;
18999;SDS011;9633;50.980;13.850;2023-04-24T00:36:26;8.57;;;6.93;;
18999;SDS011;9633;50.980;13.850;2023-04-24T00:37:59;9.20;;;7.17;;
18999;SDS011;9633;50.980;13.850;2023-04-24T00:39:32;7.90;;;6.83;;
18999;SDS011;9633;50.980;13.850;2023-04-24T00:41:05;8.17;;;7.00;;
18999;SDS011;9633;50.980;13.850;2023-04-24T00:42:40;7.13;;;6.43;;
18999;SDS011;9633;50.980;13.850;2023-04-24T00:44:14;7.70;;;6.90;;
18999;SDS011;9633;50.980;13.850;2023-04-24T00:45:47;9.00;;;6.73;;
18999;SDS011;9633;50.980;13.850;2023-04-24T00:47:20;8.13;;;7.30;;
18999;SDS011;9633;50.980;13.850;2023-04-24T00:48:54;7.50;;;6.77;;
18999;SDS011;9633;50.980;13.850;2023-04-24T00:50:28;8.03;;;7.23;;
18999;SDS011;9633;50.980;13.850;2023-04-24T00:52:02;7.40;;;6.67;;
18999;SDS011;9633;50.980;13.850;2023-04-24T00:53:38;7.63;;;6.93;;
18999;SDS011;9633;50.980;13.850;2023-04-24T00:55:12;8.23;;;7.00;;
18999;SDS011;9633;50.980;13.850;2023-04-24T00:56:44;7.73;;;6.93;;
18999;SDS011;9633;50.980;13.850;2023-04-24T00:58:19;7.37;;;6.50;;
18999;SDS011;9633;50.980;13.850;2023-04-24T00:59:52;7.57;;;6.77;;
18999;SDS011;9633;50.980;13.850;2023-04-24T01:01:24;7.20;;;6.23;;
18999;SDS011;9633;50.980;13.850;2023-04-24T01:02:58;8.17;;;5.87;;
18999;SDS011;9633;50.980;13.850;2023-04-24T01:04:34;8.13;;;6.10;;
18999;SDS011;9633;50.980;13.850;2023-04-24T01:06:08;6.67;;;6.07;;
18999;SDS011;9633;50.980;13.850;2023-04-24T01:07:43;6.63;;;6.00;;
18999;SDS011;9633;50.980;13.850;2023-04-24T01:09:20;6.83;;;6.17;;
18999;SDS011;9633;50.980;13.850;2023-04-24T01:10:55;7.10;;;6.37;;
18999;SDS011;9633;50.980;13.850;2023-04-24T01:12:30;7.03;;;6.33;;
18999;SDS011;9633;50.980;13.850;2023-04-24T01:14:04;7.03;;;6.33;;
18999;SDS011;9633;50.980;13.850;2023-04-24T01:15:38;6.57;;;5.90;;
18999;SDS011;9633;50.980;13.850;2023-04-24T01:17:11;6.77;;;6.07;;
18999;SDS011;9633;50.980;13.850;2023-04-24T01:18:45;7.10;;;6.40;;
18999;SDS011;9633;50.980;13.850;2023-04-24T01:20:18;9.00;;;6.37;;
18999;SDS011;9633;50.980;13.850;2023-04-24T01:21:53;8.07;;;6.70;;
18999;SDS011;9633;50.980;13.850;2023-04-24T01:23:31;7.83;;;6.93;;
18999;SDS011;9633;50.980;13.850;2023-04-24T01:25:04;7.17;;;6.47;;
18999;SDS011;9633;50.980;13.850;2023-04-24T01:26:38;8.77;;;6.80;;
18999;SDS011;9633;50.980;13.850;2023-04-24T01:28:11;7.87;;;6.57;;
18999;SDS011;9633;50.980;13.850;2023-04-24T01:29:45;7.57;;;6.77;;
18999;SDS011;9633;50.980;13.850;2023-04-24T01:31:19;8.47;;;6.50;;
18999;SDS011;9633;50.980;13.850;2023-04-24T01:32:52;7.07;;;6.00;;
18999;SDS011;9633;50.980;13.850;2023-04-24T01:34:25;6.80;;;6.10;;
18999;SDS011;9633;50.980;13.850;2023-04-24T01:35:58;7.53;;;5.60;;
18999;SDS011;9633;50.980;13.850;2023-04-24T01:37:32;8.00;;;6.73;;
18999;SDS011;9633;50.980;13.850;2023-04-24T01:39:07;7.27;;;6.57;;
18999;SDS011;9633;50.980;13.850;2023-04-24T01:40:40;7.70;;;6.90;;
18999;SDS011;9633;50.980;13.850;2023-04-24T01:42:13;7.13;;;6.40;;
18999;SDS011;9633;50.980;13.850;2023-04-24T01:43:47;9.20;;;6.73;;
18999;SDS011;9633;50.980;13.850;2023-04-24T01:45:23;7.83;;;6.83;;
18999;SDS011;9633;50.980;13.850;2023-04-24T01:46:57;7.80;;;6.50;;
18999;SDS011;9633;50.980;13.850;2023-04-24T01:48:29;7.10;;;6.40;;
18999;SDS011;9633;50.980;13.850;2023-04-24T01:50:04;7.47;;;6.30;;
18999;SDS011;9633;50.980;13.850;2023-04-24T01:51:38;7.33;;;6.63;;
18999;SDS011;9633;50.980;13.850;2023-04-24T01:53:11;8.43;;;6.67;;
18999;SDS011;9633;50.980;13.850;2023-04-24T01:54:44;7.87;;;6.67;;
18999;SDS011;9633;50.980;13.850;2023-04-24T01:56:17;7.37;;;6.23;;
18999;SDS011;9633;50.980;13.850;2023-04-24T01:57:52;8.33;;;6.37;;
18999;SDS011;9633;50.980;13.850;2023-04-24T01:59:28;7.27;;;6.57;;
18999;SDS011;9633;50.980;13.850;2023-04-24T02:01:02;7.50;;;6.23;;
18999;SDS011;9633;50.980;13.850;2023-04-24T02:02:34;7.40;;;6.60;;
18999;SDS011;9633;50.980;13.850;2023-04-24T02:04:08;7.33;;;6.63;;
18999;SDS011;9633;50.980;13.850;2023-04-24T02:05:40;6.93;;;6.13;;
18999;SDS011;9633;50.980;13.850;2023-04-24T02:07:16;7.40;;;6.00;;
18999;SDS011;9633;50.980;13.850;2023-04-24T02:08:48;7.70;;;6.33;;
18999;SDS011;9633;50.980;13.850;2023-04-24T02:10:23;8.10;;;7.30;;
18999;SDS011;9633;50.980;13.850;2023-04-24T02:11:56;7.83;;;6.97;;
18999;SDS011;9633;50.980;13.850;2023-04-24T02:13:29;8.53;;;6.90;;
18999;SDS011;9633;50.980;13.850;2023-04-24T02:15:01;7.77;;;6.70;;
18999;SDS011;9633;50.980;13.850;2023-04-24T02:16:35;7.80;;;7.00;;
18999;SDS011;9633;50.980;13.850;2023-04-24T02:18:08;8.20;;;7.40;;
18999;SDS011;9633;50.980;13.850;2023-04-24T02:19:42;8.83;;;7.37;;
18999;SDS011;9633;50.980;13.850;2023-04-24T02:21:15;8.13;;;7.33;;
18999;SDS011;9633;50.980;13.850;2023-04-24T02:22:49;9.00;;;7.50;;
18999;SDS011;9633;50.980;13.850;2023-04-24T02:24:22;8.43;;;7.47;;
18999;SDS011;9633;50.980;13.850;2023-04-24T02:25:56;8.57;;;7.63;;
18999;SDS011;9633;50.980;13.850;2023-04-24T02:27:29;8.43;;;7.23;;
18999;SDS011;9633;50.980;13.850;2023-04-24T02:29:02;8.80;;;7.73;;
18999;SDS011;9633;50.980;13.850;2023-04-24T02:30:36;8.60;;;7.77;;
18999;SDS011;9633;50.980;13.850;2023-04-24T02:32:09;8.00;;;7.13;;
18999;SDS011;9633;50.980;13.850;2023-04-24T02:33:43;9.77;;;7.67;;
18999;SDS011;9633;50.980;13.850;2023-04-24T02:35:16;8.00;;;7.10;;
18999;SDS011;9633;50.980;13.850;2023-04-24T02:36:49;7.03;;;6.10;;
18999;SDS011;9633;50.980;13.850;2023-04-24T02:38:22;8.47;;;6.50;;
18999;SDS011;9633;50.980;13.850;2023-04-24T02:39:55;7.20;;;6.50;;
18999;SDS011;9633;50.980;13.850;2023-04-24T02:41:30;8.13;;;7.30;;
18999;SDS011;9633;50.980;13.850;2023-04-24T02:43:04;9.77;;;7.80;;
18999;SDS011;9633;50.980;13.850;2023-04-24T02:44:37;9.83;;;8.07;;
18999;SDS011;9633;50.980;13.850;2023-04-24T02:46:10;8.63;;;7.73;;
18999;SDS011;9633;50.980;13.850;2023-04-24T02:47:42;9.10;;;8.17;;
18999;SDS011;9633;50.980;13.850;2023-04-24T02:49:16;9.83;;;8.03;;
18999;SDS011;9633;50.980;13.850;2023-04-24T02:50:48;8.93;;;8.03;;
18999;SDS011;9633;50.980;13.850;2023-04-24T02:52:21;9.57;;;8.47;;
18999;SDS011;9633;50.980;13.850;2023-04-24T02:53:55;8.63;;;7.63;;
18999;SDS011;9633;50.980;13.850;2023-04-24T02:55:28;9.17;;;7.93;;
18999;SDS011;9633;50.980;13.850;2023-04-24T02:57:03;9.00;;;8.00;;
18999;SDS011;9633;50.980;13.850;2023-04-24T02:58:36;9.03;;;8.13;;
18999;SDS011;9633;50.980;13.850;2023-04-24T03:00:09;9.37;;;8.10;;
18999;SDS011;9633;50.980;13.850;2023-04-24T03:01:43;9.70;;;8.57;;
18999;SDS011;9633;50.980;13.850;2023-04-24T03:03:16;11.50;;;8.67;;
18999;SDS011;9633;50.980;13.850;2023-04-24T03:04:50;10.43;;;9.23;;
18999;SDS011;9633;50.980;13.850;2023-04-24T03:06:24;10.37;;;9.27;;
18999;SDS011;9633;50.980;13.850;2023-04-24T03:07:58;11.20;;;9.07;;
18999;SDS011;9633;50.980;13.850;2023-04-24T03:09:30;11.60;;;9.40;;
18999;SDS011;9633;50.980;13.850;2023-04-24T03:11:04;13.30;;;9.37;;
18999;SDS011;9633;50.980;13.850;2023-04-24T03:12:38;10.53;;;9.43;;
18999;SDS011;9633;50.980;13.850;2023-04-24T03:14:10;10.80;;;8.43;;
18999;SDS011;9633;50.980;13.850;2023-04-24T03:15:43;10.30;;;9.13;;
18999;SDS011;9633;50.980;13.850;2023-04-24T03:17:18;12.70;;;10.70;;
18999;SDS011;9633;50.980;13.850;2023-04-24T03:18:51;11.33;;;10.13;;
18999;SDS011;9633;50.980;13.850;2023-04-24T03:20:24;13.63;;;10.77;;
18999;SDS011;9633;50.980;13.850;2023-04-24T03:22:01;13.90;;;10.27;;
18999;SDS011;9633;50.980;13.850;2023-04-24T03:23:34;11.13;;;9.97;;
18999;SDS011;9633;50.980;13.850;2023-04-24T03:25:08;11.23;;;10.03;;
18999;SDS011;9633;50.980;13.850;2023-04-24T03:26:42;11.97;;;10.27;;
18999;SDS011;9633;50.980;13.850;2023-04-24T03:28:30;10.77;;;9.67;;
18999;SDS011;9633;50.980;13.850;2023-04-24T03:30:07;11.13;;;9.97;;
18999;SDS011;9633;50.980;13.850;2023-04-24T03:32:01;11.27;;;9.27;;
18999;SDS011;9633;50.980;13.850;2023-04-24T03:33:34;12.07;;;10.20;;
18999;SDS011;9633;50.980;13.850;2023-04-24T03:35:08;11.20;;;9.40;;
18999;SDS011;9633;50.980;13.850;2023-04-24T03:36:41;11.87;;;10.67;;
18999;SDS011;9633;50.980;13.850;2023-04-24T03:38:15;11.53;;;9.43;;
18999;SDS011;9633;50.980;13.850;2023-04-24T03:40:11;11.47;;;9.23;;
18999;SDS011;9633;50.980;13.850;2023-04-24T03:41:45;10.90;;;8.93;;
18999;SDS011;9633;50.980;13.850;2023-04-24T03:43:22;11.43;;;9.53;;
18999;SDS011;9633;50.980;13.850;2023-04-24T03:44:56;9.97;;;8.90;;
18999;SDS011;9633;50.980;13.850;2023-04-24T03:46:34;11.70;;;9.77;;
18999;SDS011;9633;50.980;13.850;2023-04-24T03:48:08;10.47;;;9.10;;
18999;SDS011;9633;50.980;13.850;2023-04-24T03:49:41;10.47;;;9.30;;
18999;SDS011;9633;50.980;13.850;2023-04-24T03:51:14;10.00;;;8.40;;
18999;SDS011;9633;50.980;13.850;2023-04-24T03:52:50;10.67;;;8.53;;
18999;SDS011;9633;50.980;13.850;2023-04-24T03:54:34;10.50;;;8.70;;
18999;SDS011;9633;50.980;13.850;2023-04-24T03:56:07;10.30;;;8.17;;
18999;SDS011;9633;50.980;13.850;2023-04-24T03:57:40;9.23;;;8.33;;
18999;SDS011;9633;50.980;13.850;2023-04-24T03:59:22;9.90;;;8.80;;
18999;SDS011;9633;50.980;13.850;2023-04-24T04:01:10;9.77;;;8.23;;
18999;SDS011;9633;50.980;13.850;2023-04-24T04:02:55;10.37;;;8.57;;
18999;SDS011;9633;50.980;13.850;2023-04-24T04:04:29;10.73;;;8.57;;
18999;SDS011;9633;50.980;13.850;2023-04-24T04:06:03;10.47;;;8.93;;
18999;SDS011;9633;50.980;13.850;2023-04-24T04:07:37;11.13;;;9.20;;
18999;SDS011;9633;50.980;13.850;2023-04-24T04:09:10;9.43;;;8.43;;
18999;SDS011;9633;50.980;13.850;2023-04-24T04:10:43;10.17;;;9.07;;
18999;SDS011;9633;50.980;13.850;2023-04-24T04:12:16;9.60;;;8.60;;
18999;SDS011;9633;50.980;13.850;2023-04-24T04:13:50;10.40;;;9.30;;
18999;SDS011;9633;50.980;13.850;2023-04-24T04:15:25;9.83;;;8.73;;
18999;SDS011;9633;50.980;13.850;2023-04-24T04:17:00;10.87;;;9.00;;
18999;SDS011;9633;50.980;13.850;2023-04-24T04:18:34;12.83;;;9.03;;
18999;SDS011;9633;50.980;13.850;2023-04-24T04:20:08;11.10;;;8.87;;
18999;SDS011;9633;50.980;13.850;2023-04-24T04:21:43;10.93;;;9.47;;
18999;SDS011;9633;50.980;13.850;2023-04-24T04:23:33;12.80;;;8.77;;
18999;SDS011;9633;50.980;13.850;2023-04-24T04:25:12;11.03;;;9.80;;
18999;SDS011;9633;50.980;13.850;2023-04-24T04:26:46;9.93;;;8.73;;
18999;SDS011;9633;50.980;13.850;2023-04-24T04:28:29;9.57;;;8.43;;
18999;SDS011;9633;50.980;13.850;2023-04-24T04:30:04;9.70;;;8.70;;
18999;SDS011;9633;50.980;13.850;2023-04-24T04:31:49;9.90;;;8.40;;
18999;SDS011;9633;50.980;13.850;2023-04-24T04:33:24;9.80;;;8.30;;
18999;SDS011;9633;50.980;13.850;2023-04-24T04:34:57;9.67;;;8.40;;
18999;SDS011;9633;50.980;13.850;2023-04-24T04:36:35;9.70;;;8.07;;
18999;SDS011;9633;50.980;13.850;2023-04-24T04:38:24;8.77;;;7.87;;
18999;SDS011;9633;50.980;13.850;2023-04-24T04:40:06;9.27;;;7.90;;
18999;SDS011;9633;50.980;13.850;2023-04-24T04:41:51;8.30;;;7.50;;
18999;SDS011;9633;50.980;13.850;2023-04-24T04:43:27;9.30;;;7.83;;
18999;SDS011;9633;50.980;13.850;2023-04-24T04:45:00;9.43;;;7.70;;
18999;SDS011;9633;50.980;13.850;2023-04-24T04:46:45;7.80;;;7.00;;
18999;SDS011;9633;50.980;13.850;2023-04-24T04:48:40;8.30;;;7.07;;
18999;SDS011;9633;50.980;13.850;2023-04-24T04:50:13;8.57;;;7.77;;
18999;SDS011;9633;50.980;13.850;2023-04-24T04:51:48;9.83;;;7.40;;
18999;SDS011;9633;50.980;13.850;2023-04-24T04:53:22;9.20;;;7.83;;
18999;SDS011;9633;50.980;13.850;2023-04-24T04:54:57;9.93;;;7.43;;
18999;SDS011;9633;50.980;13.850;2023-04-24T04:56:41;6.80;;;6.10;;
18999;SDS011;9633;50.980;13.850;2023-04-24T04:58:14;10.00;;;8.20;;
18999;SDS011;9633;50.980;13.850;2023-04-24T04:59:48;8.53;;;7.73;;
18999;SDS011;9633;50.980;13.850;2023-04-24T05:01:34;8.30;;;7.00;;
18999;SDS011;9633;50.980;13.850;2023-04-24T05:03:10;7.70;;;6.90;;
18999;SDS011;9633;50.980;13.850;2023-04-24T05:04:51;8.77;;;6.77;;
18999;SDS011;9633;50.980;13.850;2023-04-24T05:06:25;8.33;;;6.97;;
18999;SDS011;9633;50.980;13.850;2023-04-24T05:07:59;10.13;;;7.77;;
18999;SDS011;9633;50.980;13.850;2023-04-24T05:09:32;8.17;;;6.47;;
18999;SDS011;9633;50.980;13.850;2023-04-24T05:11:08;7.33;;;6.10;;
18999;SDS011;9633;50.980;13.850;2023-04-24T05:12:43;8.23;;;6.33;;
18999;SDS011;9633;50.980;13.850;2023-04-24T05:14:17;8.47;;;6.97;;
18999;SDS011;9633;50.980;13.850;2023-04-24T05:15:50;7.30;;;6.53;;
18999;SDS011;9633;50.980;13.850;2023-04-24T05:17:24;6.80;;;5.97;;
18999;SDS011;9633;50.980;13.850;2023-04-24T05:18:58;8.57;;;7.20;;
18999;SDS011;9633;50.980;13.850;2023-04-24T05:20:38;10.00;;;6.47;;
18999;SDS011;9633;50.980;13.850;2023-04-24T05:22:12;9.43;;;6.80;;
18999;SDS011;9633;50.980;13.850;2023-04-24T05:23:52;10.43;;;7.30;;
18999;SDS011;9633;50.980;13.850;2023-04-24T05:25:45;10.23;;;8.27;;
18999;SDS011;9633;50.980;13.850;2023-04-24T05:27:19;9.50;;;7.70;;
18999;SDS011;9633;50.980;13.850;2023-04-24T05:28:53;10.57;;;8.10;;
18999;SDS011;9633;50.980;13.850;2023-04-24T05:30:26;8.33;;;7.20;;
18999;SDS011;9633;50.980;13.850;2023-04-24T05:31:59;8.03;;;7.23;;
18999;SDS011;9633;50.980;13.850;2023-04-24T05:33:34;7.93;;;7.13;;
18999;SDS011;9633;50.980;13.850;2023-04-24T05:35:08;9.27;;;7.63;;
18999;SDS011;9633;50.980;13.850;2023-04-24T05:36:42;9.17;;;8.07;;
18999;SDS011;9633;50.980;13.850;2023-04-24T05:38:16;10.63;;;9.10;;
18999;SDS011;9633;50.980;13.850;2023-04-24T05:39:50;13.60;;;9.43;;
18999;SDS011;9633;50.980;13.850;2023-04-24T05:41:22;11.90;;;10.20;;
18999;SDS011;9633;50.980;13.850;2023-04-24T05:42:56;13.67;;;11.20;;
18999;SDS011;9633;50.980;13.850;2023-04-24T05:44:29;13.30;;;11.03;;
18999;SDS011;9633;50.980;13.850;2023-04-24T05:46:03;15.10;;;11.27;;
18999;SDS011;9633;50.980;13.850;2023-04-24T05:47:36;13.30;;;11.03;;
18999;SDS011;9633;50.980;13.850;2023-04-24T05:49:10;12.63;;;10.30;;
18999;SDS011;9633;50.980;13.850;2023-04-24T05:50:44;14.40;;;10.53;;
18999;SDS011;9633;50.980;13.850;2023-04-24T05:52:20;13.20;;;11.07;;
18999;SDS011;9633;50.980;13.850;2023-04-24T05:53:54;11.60;;;10.33;;
18999;SDS011;9633;50.980;13.850;2023-04-24T05:55:29;12.10;;;9.70;;
18999;SDS011;9633;50.980;13.850;2023-04-24T05:57:03;12.13;;;10.77;;
18999;SDS011;9633;50.980;13.850;2023-04-24T05:58:56;10.13;;;8.70;;
18999;SDS011;9633;50.980;13.850;2023-04-24T06:00:29;11.23;;;8.90;;
18999;SDS011;9633;50.980;13.850;2023-04-24T06:02:09;9.43;;;8.50;;
18999;SDS011;9633;50.980;13.850;2023-04-24T06:03:42;11.50;;;8.70;;
18999;SDS011;9633;50.980;13.850;2023-04-24T06:05:15;11.73;;;8.77;;
18999;SDS011;9633;50.980;13.850;2023-04-24T06:06:49;10.67;;;8.23;;
18999;SDS011;9633;50.980;13.850;2023-04-24T06:08:28;8.77;;;7.50;;
18999;SDS011;9633;50.980;13.850;2023-04-24T06:10:01;10.70;;;8.53;;
18999;SDS011;9633;50.980;13.850;2023-04-24T06:11:42;11.87;;;9.00;;
18999;SDS011;9633;50.980;13.850;2023-04-24T06:13:17;9.30;;;8.37;;
18999;SDS011;9633;50.980;13.850;2023-04-24T06:15:10;8.20;;;7.40;;
18999;SDS011;9633;50.980;13.850;2023-04-24T06:17:07;10.10;;;6.70;;
18999;SDS011;9633;50.980;13.850;2023-04-24T06:18:43;6.57;;;5.90;;
18999;SDS011;9633;50.980;13.850;2023-04-24T06:20:19;11.37;;;6.53;;
18999;SDS011;9633;50.980;13.850;2023-04-24T06:21:52;6.83;;;5.70;;
18999;SDS011;9633;50.980;13.850;2023-04-24T06:23:25;5.43;;;4.90;;
18999;SDS011;9633;50.980;13.850;2023-04-24T06:25:00;8.87;;;6.60;;
18999;SDS011;9633;50.980;13.850;2023-04-24T06:26:33;7.17;;;6.47;;
18999;SDS011;9633;50.980;13.850;2023-04-24T06:28:07;7.33;;;5.60;;
18999;SDS011;9633;50.980;13.850;2023-04-24T06:29:40;7.30;;;5.43;;
18999;SDS011;9633;50.980;13.850;2023-04-24T06:31:13;7.30;;;6.17;;
18999;SDS011;9633;50.980;13.850;2023-04-24T06:32:47;8.87;;;5.90;;
18999;SDS011;9633;50.980;13.850;2023-04-24T06:34:20;7.23;;;5.37;;
18999;SDS011;9633;50.980;13.850;2023-04-24T06:35:53;7.17;;;4.93;;
18999;SDS011;9633;50.980;13.850;2023-04-24T06:37:26;5.97;;;4.97;;
18999;SDS011;9633;50.980;13.850;2023-04-24T06:38:59;7.10;;;4.83;;
18999;SDS011;9633;50.980;13.850;2023-04-24T06:40:33;8.37;;;4.67;;
18999;SDS011;9633;50.980;13.850;2023-04-24T06:42:06;8.70;;;5.60;;
18999;SDS011;9633;50.980;13.850;2023-04-24T06:43:40;5.83;;;5.23;;
18999;SDS011;9633;50.980;13.850;2023-04-24T06:45:14;7.63;;;5.10;;
18999;SDS011;9633;50.980;13.850;2023-04-24T06:46:47;6.80;;;4.67;;
18999;SDS011;9633;50.980;13.850;2023-04-24T06:48:20;6.57;;;5.03;;
18999;SDS011;9633;50.980;13.850;2023-04-24T06:49:53;4.77;;;4.03;;
18999;SDS011;9633;50.980;13.850;2023-04-24T06:51:26;7.70;;;4.90;;
18999;SDS011;9633;50.980;13.850;2023-04-24T06:53:00;5.93;;;4.20;;
18999;SDS011;9633;50.980;13.850;2023-04-24T06:54:33;6.40;;;4.50;;
18999;SDS011;9633;50.980;13.850;2023-04-24T06:56:07;5.17;;;4.20;;
18999;SDS011;9633;50.980;13.850;2023-04-24T06:57:41;7.17;;;4.07;;
18999;SDS011;9633;50.980;13.850;2023-04-24T06:59:15;5.30;;;3.70;;
18999;SDS011;9633;50.980;13.850;2023-04-24T07:00:48;5.30;;;3.80;;
18999;SDS011;9633;50.980;13.850;2023-04-24T07:02:21;5.80;;;3.40;;
18999;SDS011;9633;50.980;13.850;2023-04-24T07:03:55;4.00;;;3.60;;
18999;SDS011;9633;50.980;13.850;2023-04-24T07:05:29;4.03;;;3.20;;
18999;SDS011;9633;50.980;13.850;2023-04-24T07:07:02;1.37;;;0.90;;
18999;SDS011;9633;50.980;13.850;2023-04-24T07:08:36;2.80;;;1.40;;
18999;SDS011;9633;50.980;13.850;2023-04-24T07:10:10;1.57;;;1.00;;
18999;SDS011;9633;50.980;13.850;2023-04-24T07:11:45;2.00;;;0.90;;
18999;SDS011;9633;50.980;13.850;2023-04-24T07:13:18;2.10;;;1.00;;
18999;SDS011;9633;50.980;13.850;2023-04-24T07:14:51;1.00;;;0.63;;
18999;SDS011;9633;50.980;13.850;2023-04-24T07:16:24;0.70;;;0.70;;
18999;SDS011;9633;50.980;13.850;2023-04-24T07:17:58;2.47;;;0.80;;
18999;SDS011;9633;50.980;13.850;2023-04-24T07:19:35;1.93;;;0.80;;
18999;SDS011;9633;50.980;13.850;2023-04-24T07:21:08;1.83;;;0.70;;
18999;SDS011;9633;50.980;13.850;2023-04-24T07:22:42;3.00;;;0.80;;
18999;SDS011;9633;50.980;13.850;2023-04-24T07:24:15;1.20;;;0.80;;
18999;SDS011;9633;50.980;13.850;2023-04-24T07:25:52;2.13;;;0.80;;
18999;SDS011;9633;50.980;13.850;2023-04-24T07:27:27;2.20;;;1.00;;
18999;SDS011;9633;50.980;13.850;2023-04-24T07:29:00;1.63;;;0.80;;
18999;SDS011;9633;50.980;13.850;2023-04-24T07:30:33;1.33;;;0.80;;
18999;SDS011;9633;50.980;13.850;2023-04-24T07:32:07;0.90;;;0.90;;
18999;SDS011;9633;50.980;13.850;2023-04-24T07:33:40;1.73;;;0.90;;
18999;SDS011;9633;50.980;13.850;2023-04-24T07:35:17;1.43;;;0.90;;
18999;SDS011;9633;50.980;13.850;2023-04-24T07:36:51;1.57;;;0.70;;
18999;SDS011;9633;50.980;13.850;2023-04-24T07:38:24;1.83;;;0.73;;
18999;SDS011;9633;50.980;13.850;2023-04-24T07:39:57;1.47;;;0.80;;
18999;SDS011;9633;50.980;13.850;2023-04-24T07:41:31;3.63;;;0.93;;
18999;SDS011;9633;50.980;13.850;2023-04-24T07:43:05;2.07;;;0.93;;
18999;SDS011;9633;50.980;13.850;2023-04-24T07:44:38;2.03;;;0.63;;
18999;SDS011;9633;50.980;13.850;2023-04-24T07:46:11;2.43;;;0.90;;
18999;SDS011;9633;50.980;13.850;2023-04-24T07:47:45;0.90;;;0.70;;
18999;SDS011;9633;50.980;13.850;2023-04-24T07:49:18;1.63;;;0.80;;
18999;SDS011;9633;50.980;13.850;2023-04-24T07:50:51;1.70;;;0.83;;
18999;SDS011;9633;50.980;13.850;2023-04-24T07:52:25;1.73;;;0.90;;
18999;SDS011;9633;50.980;13.850;2023-04-24T07:53:58;1.43;;;0.80;;
18999;SDS011;9633;50.980;13.850;2023-04-24T07:55:31;1.60;;;0.90;;
18999;SDS011;9633;50.980;13.850;2023-04-24T07:57:04;1.93;;;0.90;;
18999;SDS011;9633;50.980;13.850;2023-04-24T07:58:40;0.80;;;0.73;;
18999;SDS011;9633;50.980;13.850;2023-04-24T08:00:14;2.37;;;0.90;;
18999;SDS011;9633;50.980;13.850;2023-04-24T08:01:48;1.00;;;0.73;;
18999;SDS011;9633;50.980;13.850;2023-04-24T08:03:21;1.60;;;0.83;;
18999;SDS011;9633;50.980;13.850;2023-04-24T08:04:55;1.73;;;0.80;;
18999;SDS011;9633;50.980;13.850;2023-04-24T08:06:30;2.03;;;0.90;;
18999;SDS011;9633;50.980;13.850;2023-04-24T08:08:04;1.27;;;0.80;;
18999;SDS011;9633;50.980;13.850;2023-04-24T08:09:37;1.33;;;0.80;;
18999;SDS011;9633;50.980;13.850;2023-04-24T08:11:10;1.60;;;0.80;;
18999;SDS011;9633;50.980;13.850;2023-04-24T08:12:43;2.00;;;0.70;;
18999;SDS011;9633;50.980;13.850;2023-04-24T08:14:18;1.87;;;0.70;;
18999;SDS011;9633;50.980;13.850;2023-04-24T08:15:51;1.23;;;0.90;;
18999;SDS011;9633;50.980;13.850;2023-04-24T08:17:24;1.67;;;0.80;;
18999;SDS011;9633;50.980;13.850;2023-04-24T08:18:57;1.03;;;0.80;;
18999;SDS011;9633;50.980;13.850;2023-04-24T08:20:30;1.03;;;0.70;;
18999;SDS011;9633;50.980;13.850;2023-04-24T08:22:03;3.27;;;0.73;;
18999;SDS011;9633;50.980;13.850;2023-04-24T08:23:36;1.43;;;0.90;;
18999;SDS011;9633;50.980;13.850;2023-04-24T08:25:10;0.90;;;0.80;;
18999;SDS011;9633;50.980;13.850;2023-04-24T08:26:43;1.20;;;0.90;;
18999;SDS011;9633;50.980;13.850;2023-04-24T08:28:16;0.90;;;0.70;;
18999;SDS011;9633;50.980;13.850;2023-04-24T08:29:53;2.27;;;0.70;;
18999;SDS011;9633;50.980;13.850;2023-04-24T08:31:27;1.07;;;0.70;;
18999;SDS011;9633;50.980;13.850;2023-04-24T08:33:00;3.07;;;0.97;;
18999;SDS011;9633;50.980;13.850;2023-04-24T08:34:33;1.87;;;1.03;;
18999;SDS011;9633;50.980;13.850;2023-04-24T08:36:06;1.20;;;0.80;;
18999;SDS011;9633;50.980;13.850;2023-04-24T08:37:40;1.00;;;0.80;;
18999;SDS011;9633;50.980;13.850;2023-04-24T08:39:13;1.23;;;0.63;;
18999;SDS011;9633;50.980;13.850;2023-04-24T08:40:47;3.63;;;0.63;;
18999;SDS011;9633;50.980;13.850;2023-04-24T08:42:21;1.37;;;0.57;;
18999;SDS011;9633;50.980;13.850;2023-04-24T08:43:54;1.00;;;0.60;;
18999;SDS011;9633;50.980;13.850;2023-04-24T08:45:30;2.13;;;0.60;;
18999;SDS011;9633;50.980;13.850;2023-04-24T08:47:05;0.80;;;0.60;;
18999;SDS011;9633;50.980;13.850;2023-04-24T08:48:40;0.77;;;0.70;;
18999;SDS011;9633;50.980;13.850;2023-04-24T08:50:13;1.87;;;0.80;;
18999;SDS011;9633;50.980;13.850;2023-04-24T08:51:47;2.43;;;0.90;;
18999;SDS011;9633;50.980;13.850;2023-04-24T08:53:22;1.63;;;0.60;;
18999;SDS011;9633;50.980;13.850;2023-04-24T08:54:57;2.43;;;0.60;;
18999;SDS011;9633;50.980;13.850;2023-04-24T08:56:31;1.30;;;0.53;;
18999;SDS011;9633;50.980;13.850;2023-04-24T08:58:09;0.60;;;0.60;;
18999;SDS011;9633;50.980;13.850;2023-04-24T08:59:42;1.17;;;0.60;;
18999;SDS011;9633;50.980;13.850;2023-04-24T09:01:18;1.10;;;0.80;;
18999;SDS011;9633;50.980;13.850;2023-04-24T09:02:53;1.67;;;0.70;;
18999;SDS011;9633;50.980;13.850;2023-04-24T09:04:26;1.27;;;0.70;;
18999;SDS011;9633;50.980;13.850;2023-04-24T09:06:02;1.67;;;0.60;;
18999;SDS011;9633;50.980;13.850;2023-04-24T09:07:36;2.10;;;0.93;;
18999;SDS011;9633;50.980;13.850;2023-04-24T09:09:14;2.00;;;0.80;;
18999;SDS011;9633;50.980;13.850;2023-04-24T09:10:50;2.10;;;0.90;;
18999;SDS011;9633;50.980;13.850;2023-04-24T09:12:23;1.33;;;0.90;;
18999;SDS011;9633;50.980;13.850;2023-04-24T09:13:56;2.43;;;0.90;;
18999;SDS011;9633;50.980;13.850;2023-04-24T09:15:30;1.97;;;0.90;;
18999;SDS011;9633;50.980;13.850;2023-04-24T09:17:05;2.10;;;0.90;;
18999;SDS011;9633;50.980;13.850;2023-04-24T09:18:39;2.47;;;0.70;;
18999;SDS011;9633;50.980;13.850;2023-04-24T09:20:12;5.40;;;1.10;;
18999;SDS011;9633;50.980;13.850;2023-04-24T09:21:46;1.93;;;0.80;;
18999;SDS011;9633;50.980;13.850;2023-04-24T09:23:19;2.07;;;0.80;;
18999;SDS011;9633;50.980;13.850;2023-04-24T09:24:59;3.57;;;1.80;;
18999;SDS011;9633;50.980;13.850;2023-04-24T09:26:35;2.60;;;1.07;;
18999;SDS011;9633;50.980;13.850;2023-04-24T09:28:08;2.30;;;0.80;;